createdAt,value
2022-10-16T00:01:18.477Z,10.55
2022-10-16T00:04:14.665Z,10.83
2022-10-16T00:07:21.775Z,10.93
2022-10-16T00:09:53.549Z,10.92
2022-10-16T00:12:39.424Z,11.31
2022-10-16T00:15:19.740Z,11.17
2022-10-16T00:19:07.916Z,11.56
2022-10-16T00:21:44.329Z,11.13
2022-10-16T00:29:11.273Z,11.45
2022-10-16T00:31:53.519Z,11.49
2022-10-16T00:34:23.376Z,11.36
2022-10-16T00:37:16.561Z,11.79
2022-10-16T00:40:07.710Z,11.47
2022-10-16T00:42:48.323Z,11.30
2022-10-16T00:45:21.184Z,11.49
2022-10-16T00:47:55.688Z,11.30
2022-10-16T00:50:40.909Z,11.27
2022-10-16T00:53:14.201Z,11.32
2022-10-16T00:55:49.907Z,11.45
2022-10-16T00:58:25.898Z,11.10
2022-10-16T01:00:59.913Z,11.23
2022-10-16T01:03:41.390Z,11.45
2022-10-16T01:06:42.693Z,11.62
2022-10-16T01:09:43.573Z,11.37
2022-10-16T01:12:48.057Z,11.28
2022-10-16T01:15:47.272Z,11.53
2022-10-16T01:18:35.663Z,11.51
2022-10-16T01:21:35.389Z,11.24
2022-10-16T01:24:37.211Z,11.23
2022-10-16T01:27:46.900Z,11.15
2022-10-16T01:30:35.493Z,11.32
2022-10-16T01:33:18.611Z,11.54
2022-10-16T01:35:59.148Z,11.38
2022-10-16T01:38:38.445Z,11.70
2022-10-16T01:41:22.007Z,11.59
2022-10-16T01:44:11.711Z,12.01
2022-10-16T01:46:50.268Z,11.51
2022-10-16T01:49:30.873Z,11.59
2022-10-16T01:52:28.540Z,12.01
2022-10-16T01:55:23.851Z,11.63
2022-10-16T01:58:00.321Z,11.50
2022-10-16T02:00:36.492Z,12.06
2022-10-16T02:03:45.205Z,12.61
2022-10-16T02:06:28.225Z,12.54
2022-10-16T02:09:31.086Z,12.03
2022-10-16T02:12:50.606Z,12.02
2022-10-16T02:15:25.651Z,11.68
2022-10-16T02:18:35.409Z,12.00
2022-10-16T02:21:36.437Z,11.44
2022-10-16T02:24:46.036Z,11.15
2022-10-16T02:27:36.890Z,10.96
2022-10-16T02:30:48.298Z,10.80
2022-10-16T02:33:31.100Z,11.12
2022-10-16T02:36:06.177Z,11.39
2022-10-16T02:39:23.043Z,11.71
2022-10-16T02:42:15.892Z,12.51
2022-10-16T02:45:02.707Z,12.20
2022-10-16T02:47:45.799Z,12.48
2022-10-16T02:51:08.782Z,12.26
2022-10-16T02:54:04.036Z,12.38
2022-10-16T02:56:34.446Z,12.40
2022-10-16T02:59:14.749Z,12.47
2022-10-16T03:01:43.994Z,12.68
2022-10-16T03:04:19.921Z,12.19
2022-10-16T03:07:12.089Z,11.94
2022-10-16T03:09:50.394Z,12.16
2022-10-16T03:12:23.057Z,12.04
2022-10-16T03:15:07.613Z,12.28
2022-10-16T03:17:54.029Z,12.45
2022-10-16T03:20:27.609Z,12.32
2022-10-16T03:23:41.963Z,12.46
2022-10-16T03:26:43.619Z,12.58
2022-10-16T03:29:57.693Z,12.55
2022-10-16T03:32:49.228Z,12.62
2022-10-16T03:35:34.865Z,12.97
2022-10-16T03:38:19.573Z,12.60
2022-10-16T03:41:00.107Z,12.85
2022-10-16T03:43:45.509Z,12.78
2022-10-16T03:46:23.204Z,12.34
2022-10-16T03:49:23.161Z,12.10
2022-10-16T03:52:04.280Z,12.58
2022-10-16T03:54:50.812Z,12.13
2022-10-16T03:57:38.032Z,12.42
2022-10-16T04:00:44.681Z,12.16
2022-10-16T04:03:54.716Z,12.13
2022-10-16T04:06:49.040Z,12.70
2022-10-16T04:09:33.185Z,12.91
2022-10-16T04:12:24.416Z,12.55
2022-10-16T04:15:25.393Z,12.47
2022-10-16T04:18:14.598Z,12.53
2022-10-16T04:21:26.392Z,12.45
2022-10-16T04:24:17.583Z,12.39
2022-10-16T04:27:11.115Z,12.37
2022-10-16T04:29:43.493Z,12.28
2022-10-16T04:32:24.855Z,12.47
2022-10-16T04:35:12.855Z,12.30
2022-10-16T04:37:43.716Z,11.78
2022-10-16T04:40:17.813Z,12.05
2022-10-16T04:42:50.215Z,11.76
2022-10-16T04:45:20.186Z,12.13
2022-10-16T04:47:51.921Z,12.39
2022-10-16T04:50:23.655Z,12.07
2022-10-16T04:53:10.721Z,11.90
2022-10-16T04:55:45.736Z,11.92
2022-10-16T04:58:25.311Z,12.24
2022-10-16T05:00:58.016Z,12.28
2022-10-16T05:03:27.841Z,12.67
2022-10-16T05:05:58.312Z,12.20
2022-10-16T05:08:35.330Z,12.60
2022-10-16T05:11:11.317Z,12.70
2022-10-16T05:13:44.248Z,12.71
2022-10-16T05:16:15.985Z,12.77
2022-10-16T05:18:48.683Z,12.50
2022-10-16T05:21:23.389Z,12.84
2022-10-16T05:23:54.633Z,12.51
2022-10-16T05:26:25.455Z,12.68
2022-10-16T05:28:54.902Z,12.72
2022-10-16T05:31:24.215Z,12.88
2022-10-16T05:34:10.200Z,12.91
2022-10-16T05:36:55.762Z,13.03
2022-10-16T05:39:26.903Z,12.73
2022-10-16T05:42:00.437Z,13.40
2022-10-16T05:44:31.505Z,13.22
2022-10-16T05:47:01.968Z,12.88
2022-10-16T05:49:41.428Z,13.64
2022-10-16T05:52:14.155Z,12.66
2022-10-16T05:54:46.242Z,12.65
2022-10-16T05:57:16.207Z,12.60
2022-10-16T05:59:50.209Z,11.74
2022-10-16T06:02:22.355Z,11.88
2022-10-16T06:04:56.020Z,12.36
2022-10-16T06:07:43.363Z,12.57
2022-10-16T06:10:21.175Z,12.95
2022-10-16T06:12:51.802Z,12.92
2022-10-16T06:15:24.235Z,13.06
2022-10-16T06:18:02.695Z,13.26
2022-10-16T06:20:35.495Z,13.17
2022-10-16T06:23:13.857Z,13.08
2022-10-16T06:25:43.321Z,12.92
2022-10-16T06:28:17.542Z,12.87
2022-10-16T06:30:47.553Z,13.14
2022-10-16T06:33:17.798Z,13.54
2022-10-16T06:35:49.741Z,12.89
2022-10-16T06:38:19.642Z,12.77
2022-10-16T07:04:10.919Z,11.46
2022-10-16T07:27:47.056Z,11.93
2022-10-16T07:31:36.031Z,12.42
2022-10-16T07:41:19.998Z,12.16
2022-10-16T07:54:52.536Z,12.61
2022-10-16T08:04:18.831Z,12.80
2022-10-16T08:17:11.613Z,12.90
2022-10-16T08:25:18.266Z,12.21
2022-10-16T08:29:31.546Z,12.69
2022-10-16T08:32:48.298Z,12.29
2022-10-16T08:36:05.569Z,12.24
2022-10-16T08:52:50.903Z,12.41
2022-10-16T08:56:03.774Z,12.64
2022-10-16T09:00:18.799Z,11.88
2022-10-16T09:03:35.085Z,12.95
2022-10-16T09:07:31.809Z,12.76
2022-10-16T09:11:39.944Z,12.81
2022-10-16T09:15:19.650Z,12.52
2022-10-16T09:23:35.970Z,12.65
2022-10-16T09:30:55.286Z,12.87
2022-10-16T09:33:57.140Z,13.14
2022-10-16T09:37:01.973Z,13.03
2022-10-16T09:40:29.199Z,12.80
2022-10-16T09:43:48.143Z,13.12
2022-10-16T09:46:52.982Z,12.89
2022-10-16T09:50:40.252Z,12.70
2022-10-16T09:53:24.641Z,12.24
2022-10-16T10:07:05.943Z,12.54
2022-10-16T10:18:06.214Z,12.53
2022-10-16T10:35:48.519Z,12.36
2022-10-16T10:39:36.099Z,12.55
2022-10-16T10:42:39.293Z,12.26
2022-10-16T10:54:32.494Z,12.08
2022-10-16T11:09:03.778Z,11.65
2022-10-16T11:12:31.372Z,12.52
2022-10-16T11:25:35.341Z,13.43
2022-10-16T11:29:18.776Z,13.14
2022-10-16T11:32:51.909Z,13.36
2022-10-16T11:36:31.524Z,12.71
2022-10-16T11:43:54.973Z,12.22
2022-10-16T11:50:35.971Z,13.03
2022-10-16T12:04:18.681Z,12.28
2022-10-16T12:07:27.675Z,11.77
2022-10-16T12:21:01.455Z,10.84
2022-10-16T12:23:58.076Z,11.49
2022-10-16T12:26:50.154Z,10.84
2022-10-16T12:29:47.934Z,11.14
2022-10-16T12:32:50.703Z,11.65
2022-10-16T12:35:28.255Z,12.18
2022-10-16T12:38:46.328Z,12.62
2022-10-16T12:41:47.473Z,12.67
2022-10-16T12:48:48.330Z,12.26
2022-10-16T12:51:58.818Z,12.70
2022-10-16T12:54:45.745Z,12.33
2022-10-16T12:58:00.572Z,12.64
2022-10-16T13:00:59.096Z,12.43
2022-10-16T13:03:58.182Z,12.61
2022-10-16T13:07:23.150Z,12.46
2022-10-16T13:10:32.457Z,12.49
2022-10-16T13:13:27.671Z,12.41
2022-10-16T13:19:40.567Z,12.61
2022-10-16T13:22:47.805Z,12.86
2022-10-16T13:25:31.385Z,12.39
2022-10-16T13:28:20.369Z,11.85
2022-10-16T13:31:03.448Z,12.22
2022-10-16T13:33:35.703Z,12.16
2022-10-16T13:36:41.638Z,11.52
2022-10-16T13:39:31.846Z,11.91
2022-10-16T13:42:28.095Z,11.19
2022-10-16T13:45:35.780Z,10.21
2022-10-16T13:49:26.715Z,11.26
2022-10-16T13:52:31.854Z,11.30
2022-10-16T13:55:43.530Z,11.43
2022-10-16T14:04:27.714Z,11.04
2022-10-16T14:07:21.959Z,11.39
2022-10-16T14:11:30.052Z,11.31
2022-10-16T14:14:24.305Z,11.14
2022-10-16T14:17:33.060Z,10.96
2022-10-16T14:20:29.397Z,10.64
2022-10-16T14:23:24.032Z,10.40
2022-10-16T14:26:13.465Z,9.41
2022-10-16T14:29:26.059Z,10.55
2022-10-16T14:33:10.851Z,10.36
2022-10-16T14:36:33.196Z,9.99
2022-10-16T14:39:42.062Z,10.59
2022-10-16T14:46:34.094Z,10.02
2022-10-16T14:49:47.892Z,10.45
2022-10-16T14:52:22.692Z,10.62
2022-10-16T14:55:15.497Z,10.69
2022-10-16T14:57:55.577Z,10.71
2022-10-16T15:00:57.875Z,10.69
2022-10-16T15:04:49.385Z,9.74
2022-10-16T15:07:42.043Z,9.86
2022-10-16T15:10:47.853Z,9.58
2022-10-16T15:15:58.085Z,8.91
2022-10-16T15:20:24.767Z,9.23
2022-10-16T15:23:52.042Z,8.02
2022-10-16T16:16:03.148Z,8.12
2022-10-16T16:28:19.404Z,7.87
2022-10-16T17:11:16.253Z,7.43
2022-10-16T17:14:09.751Z,8.42
2022-10-16T17:27:10.959Z,8.12
2022-10-16T17:35:55.687Z,7.69
2022-10-16T17:54:28.211Z,7.57
2022-10-16T17:58:04.827Z,8.11
2022-10-16T18:00:50.293Z,7.60
2022-10-16T18:03:32.328Z,7.71
2022-10-16T18:06:29.086Z,8.02
2022-10-16T18:10:21.804Z,7.47
2022-10-16T18:14:26.972Z,7.11
2022-10-16T18:19:15.604Z,7.47
2022-10-16T18:22:28.768Z,7.45
2022-10-16T18:32:38.197Z,7.28
2022-10-16T18:35:31.608Z,7.62
2022-10-16T18:43:51.024Z,6.92
2022-10-16T18:51:12.898Z,7.59
2022-10-16T18:54:04.086Z,7.23
2022-10-16T18:57:34.399Z,7.50
2022-10-16T19:00:16.569Z,7.65
2022-10-16T19:11:30.993Z,7.16
2022-10-16T19:18:05.505Z,7.56
2022-10-16T19:21:16.052Z,6.82
2022-10-16T19:25:40.244Z,5.93
2022-10-16T19:34:18.732Z,6.77
2022-10-16T19:37:36.185Z,7.71
2022-10-16T19:40:58.148Z,7.30
2022-10-16T19:44:39.463Z,8.35
2022-10-16T19:54:03.413Z,7.71
2022-10-16T19:57:51.747Z,8.02
2022-10-16T20:00:46.855Z,7.67
2022-10-16T20:04:29.071Z,7.71
2022-10-16T20:07:59.490Z,8.32
2022-10-16T20:11:04.512Z,7.92
2022-10-16T20:15:48.570Z,6.76
2022-10-16T20:23:04.803Z,7.94
2022-10-16T20:42:54.163Z,8.64
2022-10-16T20:46:28.010Z,8.71
2022-10-16T21:12:27.215Z,8.72
2022-10-16T21:15:30.953Z,8.58
2022-10-16T21:19:23.924Z,8.36
2022-10-16T21:22:26.741Z,8.68
2022-10-16T21:25:58.289Z,7.59
2022-10-16T21:29:37.612Z,8.27
2022-10-16T21:36:34.721Z,8.26
2022-10-16T21:40:32.446Z,8.52
2022-10-16T21:45:27.715Z,8.76
2022-10-16T21:50:55.587Z,8.62
2022-10-16T21:54:01.014Z,8.26
2022-10-16T21:58:02.471Z,9.06
2022-10-16T22:01:00.772Z,8.68
2022-10-16T22:03:42.851Z,9.10
2022-10-16T22:10:54.650Z,8.96
2022-10-16T22:36:12.618Z,9.41
2022-10-16T22:42:04.237Z,8.42
2022-10-16T22:44:44.171Z,9.03
2022-10-16T22:47:14.341Z,10.07
2022-10-16T22:49:43.717Z,10.02
2022-10-16T22:52:13.992Z,9.53
2022-10-16T22:54:50.076Z,10.63
2022-10-16T22:57:22.419Z,10.10
2022-10-16T23:03:04.593Z,10.21
2022-10-16T23:05:45.039Z,10.16
2022-10-16T23:09:08.674Z,10.62
2022-10-16T23:12:07.422Z,10.58
2022-10-16T23:15:00.137Z,10.54
2022-10-16T23:17:47.078Z,10.34
2022-10-16T23:20:20.346Z,9.89
2022-10-16T23:22:59.924Z,10.30
2022-10-16T23:25:41.841Z,10.52
2022-10-16T23:28:34.112Z,10.84
2022-10-16T23:31:27.187Z,10.75
2022-10-16T23:34:28.394Z,10.21
2022-10-16T23:37:51.592Z,11.00
2022-10-16T23:40:33.755Z,10.20
2022-10-16T23:43:15.371Z,10.17
2022-10-16T23:45:58.890Z,10.11
2022-10-16T23:49:32.941Z,10.30
2022-10-16T23:52:43.462Z,9.49
2022-10-16T23:55:35.330Z,10.29
2022-10-16T23:58:16.276Z,9.24
